createdAt,value
2018-10-19T00:02:46.535Z,24.80
2018-10-19T00:06:51.827Z,25.97
2018-10-19T00:10:57.744Z,23.73
2018-10-19T00:15:02.232Z,22.70
2018-10-19T00:19:06.585Z,23.57
2018-10-19T00:23:10.992Z,23.33
2018-10-19T00:27:15.828Z,22.10
2018-10-19T00:31:20.617Z,21.90
2018-10-19T00:35:25.302Z,22.53
2018-10-19T00:39:29.512Z,22.77
2018-10-19T00:43:33.826Z,24.93
2018-10-19T00:47:37.970Z,22.83
2018-10-19T00:51:45.048Z,23.73
2018-10-19T00:55:49.187Z,25.27
2018-10-19T00:59:54.523Z,23.97
2018-10-19T01:03:58.890Z,22.23
2018-10-19T01:08:03.635Z,24.10
2018-10-19T01:12:09.139Z,23.20
2018-10-19T01:16:18.952Z,23.93
2018-10-19T01:20:27.202Z,24.53
2018-10-19T01:24:31.314Z,23.30
2018-10-19T01:33:15.964Z,24.03
2018-10-19T01:37:19.866Z,25.50
2018-10-19T01:41:24.540Z,22.47
2018-10-19T01:45:29.651Z,24.17
2018-10-19T01:49:34.815Z,24.67
2018-10-19T01:53:38.974Z,25.07
2018-10-19T01:57:43.133Z,23.27
2018-10-19T02:01:48.257Z,25.37
2018-10-19T02:05:52.630Z,23.60
2018-10-19T02:09:57.318Z,22.77
2018-10-19T02:14:01.533Z,25.67
2018-10-19T02:18:05.996Z,25.33
2018-10-19T02:22:10.126Z,25.83
2018-10-19T02:26:14.172Z,25.10
2018-10-19T02:30:18.559Z,24.63
2018-10-19T02:34:23.017Z,26.13
2018-10-19T02:38:27.263Z,26.37
2018-10-19T02:42:31.936Z,26.57
2018-10-19T02:46:36.187Z,25.47
2018-10-19T02:50:40.879Z,25.40
2018-10-19T02:54:45.168Z,25.43
2018-10-19T03:08:05.385Z,24.17
2018-10-19T03:12:13.664Z,25.50
2018-10-19T03:16:18.065Z,24.47
2018-10-19T03:20:22.417Z,25.07
2018-10-19T03:24:27.071Z,27.03
2018-10-19T03:28:32.273Z,24.57
2018-10-19T03:32:36.651Z,24.63
2018-10-19T03:36:41.485Z,23.40
2018-10-19T03:40:45.594Z,24.90
2018-10-19T03:44:50.218Z,24.63
2018-10-19T03:48:54.763Z,25.73
2018-10-19T03:52:58.986Z,26.17
2018-10-19T03:57:03.389Z,25.63
2018-10-19T04:01:07.561Z,26.43
2018-10-19T04:05:12.629Z,24.43
2018-10-19T04:09:17.681Z,26.03
2018-10-19T04:13:22.181Z,25.83
2018-10-19T04:17:26.905Z,24.23
2018-10-19T04:21:33.552Z,26.17
2018-10-19T04:25:40.815Z,23.57
2018-10-19T04:29:45.999Z,25.03
2018-10-19T04:33:52.184Z,24.07
2018-10-19T04:37:57.876Z,24.07
2018-10-19T04:42:05.646Z,25.33
2018-10-19T04:46:10.804Z,24.13
2018-10-19T04:50:16.154Z,24.43
2018-10-19T04:54:22.312Z,25.67
2018-10-19T04:58:35.138Z,25.70
2018-10-19T05:02:45.892Z,25.77
2018-10-19T05:11:13.635Z,23.23
2018-10-19T05:15:21.075Z,25.33
2018-10-19T05:19:30.142Z,24.83
2018-10-19T05:23:35.943Z,24.73
2018-10-19T05:27:45.169Z,26.40
2018-10-19T05:32:00.412Z,25.53
2018-10-19T07:22:07.284Z,26.13
2018-10-19T07:26:32.795Z,26.27
2018-10-19T07:30:48.322Z,27.53
2018-10-19T07:35:11.635Z,28.17
2018-10-19T07:39:29.958Z,27.70
2018-10-19T07:48:11.955Z,27.70
2018-10-19T07:52:22.365Z,26.13
2018-10-19T07:56:38.311Z,27.60
2018-10-19T08:00:55.637Z,25.77
2018-10-19T08:09:39.716Z,26.77
2018-10-19T08:13:52.015Z,27.27
2018-10-19T08:22:25.109Z,26.93
2018-10-19T08:54:41.758Z,27.57
2018-10-19T08:59:06.936Z,26.40
2018-10-19T09:03:18.723Z,26.63
2018-10-19T19:08:58.786Z,23.87
2018-10-19T19:27:03.718Z,25.07
2018-10-19T19:35:53.549Z,25.87
2018-10-19T19:40:15.591Z,26.77
2018-10-19T19:44:30.454Z,27.50
2018-10-19T19:48:48.272Z,25.63
2018-10-19T20:16:00.723Z,26.27
2018-10-19T20:20:06.211Z,24.83
2018-10-19T20:24:17.960Z,23.47
2018-10-19T20:28:25.422Z,24.23
2018-10-19T20:32:32.393Z,27.13
2018-10-19T20:36:43.279Z,27.17
2018-10-19T20:40:49.110Z,24.50
2018-10-19T20:44:56.757Z,24.63
2018-10-19T20:57:51.814Z,25.93
2018-10-19T21:06:19.311Z,27.27
2018-10-19T21:14:43.330Z,26.53
2018-10-19T21:18:56.429Z,26.80
2018-10-19T21:23:10.630Z,25.07
2018-10-19T21:31:33.181Z,26.77
2018-10-19T21:35:40.221Z,26.90
2018-10-19T21:39:49.975Z,26.40
2018-10-19T21:43:58.176Z,26.37
2018-10-19T21:48:10.588Z,27.67
2018-10-19T21:52:18.408Z,28.70
2018-10-19T22:01:11.349Z,27.33
2018-10-19T22:05:23.135Z,27.63
2018-10-19T22:09:34.551Z,28.50
2018-10-19T22:13:46.467Z,27.27
2018-10-19T22:17:52.622Z,28.70
2018-10-19T22:21:58.143Z,28.40
2018-10-19T22:30:15.965Z,29.33
2018-10-19T22:34:22.381Z,29.13
2018-10-19T22:38:31.335Z,29.20
2018-10-19T22:42:35.874Z,29.57
2018-10-19T22:46:45.256Z,26.40
2018-10-19T22:50:52.213Z,29.57
2018-10-19T22:55:01.314Z,29.67
2018-10-19T22:59:06.870Z,29.07
2018-10-19T23:03:12.000Z,29.03
2018-10-19T23:07:16.370Z,29.03
2018-10-19T23:11:26.092Z,28.37
2018-10-19T23:15:30.875Z,27.50
2018-10-19T23:19:42.474Z,27.60
2018-10-19T23:23:48.711Z,30.87
2018-10-19T23:27:54.710Z,30.13
2018-10-19T23:31:59.794Z,31.80
2018-10-19T23:36:04.692Z,30.67
2018-10-19T23:40:11.043Z,28.27
2018-10-19T23:44:17.343Z,31.07
2018-10-19T23:48:29.577Z,30.90
2018-10-19T23:52:33.626Z,28.67
2018-10-19T23:56:37.606Z,28.30
